createdAt,value
2023-02-09T00:02:00.837Z,13.48
2023-02-09T00:04:27.501Z,13.35
2023-02-09T00:06:53.962Z,13.57
2023-02-09T00:09:20.357Z,13.68
2023-02-09T00:12:05.149Z,12.77
2023-02-09T00:14:33.462Z,12.50
2023-02-09T00:17:02.091Z,12.10
2023-02-09T00:19:28.906Z,13.20
2023-02-09T00:21:55.325Z,12.57
2023-02-09T00:24:21.674Z,12.68
2023-02-09T00:26:48.291Z,12.25
2023-02-09T00:29:15.389Z,12.27
2023-02-09T00:31:41.948Z,12.70
2023-02-09T00:34:08.776Z,11.65
2023-02-09T00:36:35.236Z,12.02
2023-02-09T00:39:01.865Z,12.32
2023-02-09T00:41:46.984Z,13.40
2023-02-09T00:44:13.431Z,11.23
2023-02-09T00:46:39.829Z,11.98
2023-02-09T00:49:06.683Z,12.05
2023-02-09T00:51:33.186Z,13.93
2023-02-09T00:54:01.839Z,11.95
2023-02-09T00:56:28.230Z,12.98
2023-02-09T00:58:54.721Z,15.68
2023-02-09T01:01:21.378Z,12.18
2023-02-09T01:03:47.876Z,11.63
2023-02-09T01:06:14.495Z,11.95
2023-02-09T01:08:40.901Z,14.10
2023-02-09T01:11:13.062Z,13.07
2023-02-09T01:13:39.764Z,13.73
2023-02-09T01:16:11.343Z,12.27
2023-02-09T01:18:40.949Z,12.32
2023-02-09T01:21:15.647Z,13.95
2023-02-09T01:23:42.666Z,14.05
2023-02-09T01:26:11.237Z,12.57
2023-02-09T01:28:38.073Z,13.63
2023-02-09T01:31:06.511Z,12.43
2023-02-09T01:33:33.479Z,11.57
2023-02-09T01:36:04.962Z,14.68
2023-02-09T01:38:31.694Z,15.20
2023-02-09T01:40:58.133Z,13.57
2023-02-09T01:43:24.508Z,15.52
2023-02-09T01:45:56.433Z,11.98
2023-02-09T01:48:30.249Z,15.23
2023-02-09T01:51:00.689Z,13.90
2023-02-09T01:53:27.943Z,14.02
2023-02-09T01:56:02.055Z,12.77
2023-02-09T01:58:28.818Z,12.88
2023-02-09T02:00:55.659Z,15.63
2023-02-09T02:03:26.880Z,15.90
2023-02-09T02:05:59.990Z,15.23
2023-02-09T02:08:40.984Z,12.02
2023-02-09T02:11:08.857Z,15.55
2023-02-09T02:13:35.588Z,17.13
2023-02-09T02:16:34.774Z,13.95
2023-02-09T02:19:33.634Z,11.52
2023-02-09T02:22:26.928Z,13.43
2023-02-09T02:25:08.641Z,12.45
2023-02-09T02:27:57.148Z,13.98
2023-02-09T02:30:29.740Z,13.85
2023-02-09T02:33:11.478Z,13.50
2023-02-09T02:35:51.348Z,14.02
2023-02-09T02:38:41.492Z,13.93
2023-02-09T02:41:25.539Z,15.18
2023-02-09T02:44:06.431Z,13.73
2023-02-09T02:46:44.719Z,15.63
2023-02-09T02:49:50.239Z,13.60
2023-02-09T02:52:17.071Z,15.90
2023-02-09T02:55:00.549Z,13.20
2023-02-09T02:57:31.850Z,16.98
2023-02-09T03:00:22.569Z,13.80
2023-02-09T03:02:53.642Z,14.98
2023-02-09T03:05:23.437Z,18.42
2023-02-09T03:07:51.073Z,19.10
2023-02-09T03:10:47.035Z,16.05
2023-02-09T03:13:31.693Z,17.13
2023-02-09T03:16:08.553Z,19.10
2023-02-09T03:18:57.090Z,17.92
2023-02-09T03:21:42.657Z,16.02
2023-02-09T03:24:37.553Z,15.65
2023-02-09T03:27:15.213Z,15.02
2023-02-09T03:29:45.031Z,14.77
2023-02-09T03:32:11.744Z,16.58
2023-02-09T03:34:38.481Z,15.00
2023-02-09T03:37:05.096Z,16.63
2023-02-09T03:39:31.507Z,16.55
2023-02-09T03:41:57.895Z,15.82
2023-02-09T03:44:27.548Z,16.70
2023-02-09T03:46:59.733Z,16.65
2023-02-09T03:49:28.606Z,19.92
2023-02-09T03:51:55.184Z,15.82
2023-02-09T03:54:21.670Z,21.45
2023-02-09T03:56:48.447Z,17.85
2023-02-09T03:59:14.990Z,15.43
2023-02-09T04:01:41.357Z,19.52
2023-02-09T04:04:07.784Z,15.43
2023-02-09T04:06:35.456Z,16.90
2023-02-09T04:09:03.068Z,17.60
2023-02-09T04:11:29.518Z,16.83
2023-02-09T04:13:55.875Z,19.25
2023-02-09T04:16:22.785Z,16.65
2023-02-09T04:18:49.309Z,18.77
2023-02-09T04:21:15.713Z,20.70
2023-02-09T04:23:42.133Z,17.80
2023-02-09T04:26:08.718Z,19.23
2023-02-09T04:28:35.327Z,17.95
2023-02-09T04:31:01.863Z,18.77
2023-02-09T04:33:28.459Z,19.05
2023-02-09T04:35:54.961Z,16.98
2023-02-09T04:38:22.220Z,19.60
2023-02-09T04:40:52.303Z,19.67
2023-02-09T04:43:18.765Z,19.50
2023-02-09T04:45:45.525Z,19.27
2023-02-09T04:48:14.777Z,17.23
2023-02-09T04:50:41.959Z,18.38
2023-02-09T04:53:08.844Z,17.20
2023-02-09T04:55:40.057Z,19.02
2023-02-09T04:58:25.057Z,21.15
2023-02-09T05:00:51.557Z,20.05
2023-02-09T05:03:18.019Z,19.02
2023-02-09T05:05:44.764Z,17.77
2023-02-09T05:08:11.242Z,17.90
2023-02-09T05:10:37.734Z,20.45
2023-02-09T05:13:04.221Z,18.70
2023-02-09T05:15:30.781Z,24.30
2023-02-09T05:17:57.213Z,19.30
2023-02-09T05:20:23.610Z,18.02
2023-02-09T05:22:50.324Z,20.80
2023-02-09T05:25:17.015Z,22.33
2023-02-09T05:27:43.378Z,21.52
2023-02-09T05:30:10.507Z,17.85
2023-02-09T05:32:36.883Z,17.52
2023-02-09T05:35:03.265Z,21.60
2023-02-09T05:37:29.859Z,20.65
2023-02-09T05:39:57.178Z,20.27
2023-02-09T05:42:23.766Z,18.85
2023-02-09T05:44:51.345Z,20.10
2023-02-09T05:47:19.640Z,19.40
2023-02-09T05:49:46.236Z,19.23
2023-02-09T05:52:13.316Z,19.30
2023-02-09T05:54:39.775Z,20.33
2023-02-09T05:57:06.913Z,20.38
2023-02-09T05:59:33.676Z,22.50
2023-02-09T06:02:00.609Z,22.10
2023-02-09T06:04:28.638Z,22.58
2023-02-09T06:06:55.781Z,21.90
2023-02-09T06:09:22.280Z,24.77
2023-02-09T06:11:48.738Z,20.13
2023-02-09T06:14:15.735Z,21.77
2023-02-09T06:16:42.376Z,22.40
2023-02-09T06:19:13.059Z,21.08
2023-02-09T06:21:39.615Z,22.67
2023-02-09T06:24:06.210Z,21.67
2023-02-09T06:26:32.607Z,20.70
2023-02-09T06:28:59.197Z,22.55
2023-02-09T06:31:25.714Z,21.52
2023-02-09T06:33:52.234Z,21.45
2023-02-09T06:36:18.684Z,22.80
2023-02-09T06:38:45.132Z,23.98
2023-02-09T06:41:11.744Z,21.33
2023-02-09T06:43:38.222Z,25.15
2023-02-09T06:46:06.922Z,24.42
2023-02-09T06:48:33.492Z,23.55
2023-02-09T06:51:00.294Z,24.50
2023-02-09T06:53:27.029Z,22.25
2023-02-09T06:55:59.522Z,22.25
2023-02-09T06:58:25.963Z,20.92
2023-02-09T07:00:52.498Z,21.20
2023-02-09T07:03:19.224Z,23.90
2023-02-09T07:05:46.167Z,22.88
2023-02-09T07:08:12.623Z,24.65
2023-02-09T07:10:40.826Z,24.23
2023-02-09T07:13:07.182Z,22.45
2023-02-09T07:15:33.650Z,19.83
2023-02-09T07:18:00.108Z,22.50
2023-02-09T07:20:26.571Z,23.75
2023-02-09T07:22:52.995Z,22.80
2023-02-09T07:25:19.447Z,24.70
2023-02-09T07:27:45.888Z,22.23
2023-02-09T07:30:12.946Z,22.10
2023-02-09T07:32:39.781Z,23.77
2023-02-09T07:35:06.330Z,20.48
2023-02-09T07:37:34.172Z,24.08
2023-02-09T07:40:00.763Z,23.25
2023-02-09T07:42:27.223Z,22.58
2023-02-09T07:44:58.179Z,22.30
2023-02-09T07:47:24.602Z,23.75
2023-02-09T07:49:51.036Z,22.35
2023-02-09T07:52:17.416Z,23.08
2023-02-09T07:54:43.979Z,27.08
2023-02-09T07:57:12.383Z,24.25
2023-02-09T07:59:38.765Z,23.17
2023-02-09T08:02:06.453Z,21.83
2023-02-09T08:04:32.857Z,24.85
2023-02-09T08:07:00.338Z,23.20
2023-02-09T08:09:26.899Z,25.33
2023-02-09T08:11:57.431Z,28.90
2023-02-09T08:14:31.175Z,26.35
2023-02-09T08:17:21.217Z,24.33
2023-02-09T08:19:52.051Z,25.63
2023-02-09T08:22:18.907Z,24.52
2023-02-09T08:24:45.376Z,26.55
2023-02-09T08:27:11.933Z,26.55
2023-02-09T08:29:38.507Z,25.85
2023-02-09T08:32:05.145Z,23.80
2023-02-09T08:34:31.708Z,26.17
2023-02-09T08:36:58.163Z,27.52
2023-02-09T08:39:24.528Z,25.35
2023-02-09T08:41:50.897Z,28.95
2023-02-09T08:44:17.255Z,26.27
2023-02-09T08:46:43.853Z,31.98
2023-02-09T08:49:10.405Z,29.17
2023-02-09T08:51:36.843Z,25.92
2023-02-09T08:54:03.299Z,23.52
2023-02-09T08:56:29.765Z,27.48
2023-02-09T08:58:56.118Z,27.23
2023-02-09T09:01:22.547Z,29.98
2023-02-09T09:03:49.377Z,33.15
2023-02-09T09:06:15.960Z,32.03
2023-02-09T09:08:42.377Z,29.63
2023-02-09T09:11:13.171Z,27.77
2023-02-09T09:13:41.083Z,27.38
2023-02-09T09:16:14.266Z,28.13
2023-02-09T09:18:40.690Z,30.92
2023-02-09T09:21:07.101Z,32.50
2023-02-09T09:23:33.468Z,36.80
2023-02-09T09:26:02.038Z,29.08
2023-02-09T09:28:29.005Z,28.25
2023-02-09T09:30:56.094Z,30.33
2023-02-09T09:33:22.548Z,27.63
2023-02-09T09:35:49.001Z,29.60
2023-02-09T09:38:15.723Z,32.97
2023-02-09T09:40:45.891Z,24.70
2023-02-09T09:43:27.344Z,26.92
2023-02-09T09:45:54.214Z,30.85
2023-02-09T09:48:40.594Z,31.10
2023-02-09T09:51:15.518Z,31.02
2023-02-09T09:53:44.147Z,30.48
2023-02-09T09:56:13.509Z,29.55
2023-02-09T09:58:43.164Z,26.80
2023-02-09T10:01:18.230Z,29.88
2023-02-09T10:03:44.690Z,26.92
2023-02-09T10:06:22.559Z,30.02
2023-02-09T10:08:55.071Z,26.30
2023-02-09T10:11:30.265Z,26.45
2023-02-09T10:13:57.968Z,30.63
2023-02-09T10:16:27.388Z,29.55
2023-02-09T10:18:56.372Z,29.50
2023-02-09T10:21:25.701Z,32.50
2023-02-09T10:24:20.124Z,27.23
2023-02-09T10:27:13.112Z,28.40
2023-02-09T10:29:39.840Z,33.47
2023-02-09T10:32:15.726Z,29.75
2023-02-09T10:34:49.102Z,30.85
2023-02-09T10:40:25.456Z,31.33
2023-02-09T10:43:00.762Z,30.77
2023-02-09T10:45:55.246Z,26.15
2023-02-09T10:48:24.189Z,21.15
2023-02-09T10:51:06.151Z,28.77
2023-02-09T10:54:00.045Z,28.25
2023-02-09T10:59:17.626Z,28.85
2023-02-09T11:01:55.830Z,26.70
2023-02-09T11:04:24.959Z,25.27
2023-02-09T11:06:57.992Z,23.65
2023-02-09T11:09:32.763Z,22.63
2023-02-09T11:11:59.156Z,29.23
2023-02-09T11:14:25.662Z,21.65
2023-02-09T11:17:09.550Z,22.20
2023-02-09T11:19:54.759Z,22.27
2023-02-09T11:22:21.062Z,17.73
2023-02-09T11:25:16.894Z,19.75
2023-02-09T11:27:56.211Z,19.83
2023-02-09T11:30:22.644Z,21.10
2023-02-09T11:33:07.629Z,21.23
2023-02-09T11:35:51.255Z,20.65
2023-02-09T11:40:53.623Z,18.08
2023-02-09T11:45:56.555Z,21.30
2023-02-09T11:48:44.977Z,26.83
2023-02-09T11:51:26.578Z,18.23
2023-02-09T11:54:07.385Z,21.67
2023-02-09T11:56:42.215Z,20.70
2023-02-09T11:59:42.128Z,23.38
2023-02-09T12:02:37.357Z,23.58
2023-02-09T12:05:05.154Z,21.20
2023-02-09T12:07:51.732Z,16.85
2023-02-09T12:10:32.284Z,25.58
2023-02-09T12:13:13.239Z,25.05
2023-02-09T12:15:52.647Z,20.02
2023-02-09T12:18:22.751Z,21.92
2023-02-09T12:20:52.446Z,19.88
2023-02-09T12:23:21.871Z,22.02
2023-02-09T12:26:01.033Z,21.08
2023-02-09T12:28:27.489Z,23.27
2023-02-09T12:30:53.901Z,22.52
2023-02-09T12:33:23.246Z,19.85
2023-02-09T12:36:27.110Z,20.85
2023-02-09T12:39:04.690Z,22.58
2023-02-09T12:41:34.435Z,22.48
2023-02-09T12:44:09.739Z,19.60
2023-02-09T12:46:45.414Z,21.45
2023-02-09T12:49:11.718Z,20.92
2023-02-09T12:51:43.205Z,20.25
2023-02-09T12:54:47.259Z,22.23
2023-02-09T12:57:16.919Z,20.60
2023-02-09T12:59:49.585Z,20.90
2023-02-09T13:02:50.500Z,23.98
2023-02-09T13:05:21.990Z,20.35
2023-02-09T13:07:55.457Z,16.23
2023-02-09T13:13:18.308Z,20.02
2023-02-09T13:15:47.689Z,20.33
2023-02-09T13:18:19.843Z,18.92
2023-02-09T13:21:17.523Z,16.30
2023-02-09T13:24:04.182Z,15.70
2023-02-09T13:26:32.740Z,17.77
2023-02-09T13:29:22.134Z,16.00
2023-02-09T13:31:58.738Z,25.95
2023-02-09T13:34:31.202Z,18.70
2023-02-09T13:37:14.141Z,20.00
2023-02-09T13:39:41.888Z,25.02
2023-02-09T13:42:22.677Z,37.72
2023-02-09T13:44:55.964Z,40.55
2023-02-09T13:47:23.466Z,24.58
2023-02-09T13:49:55.911Z,20.42
2023-02-09T13:52:23.526Z,18.30
2023-02-09T13:54:50.563Z,19.00
2023-02-09T13:57:27.572Z,18.55
2023-02-09T13:59:54.432Z,19.45
2023-02-09T14:02:25.959Z,46.13
2023-02-09T14:04:58.966Z,33.92
2023-02-09T14:07:30.904Z,24.58
2023-02-09T14:10:17.963Z,42.70
2023-02-09T14:12:52.439Z,16.52
2023-02-09T14:15:48.340Z,28.42
2023-02-09T14:18:21.219Z,15.00
2023-02-09T14:21:02.949Z,19.10
2023-02-09T14:23:32.912Z,19.65
2023-02-09T14:26:14.319Z,19.15
2023-02-09T14:28:48.999Z,16.13
2023-02-09T14:31:26.581Z,14.60
2023-02-09T14:33:55.762Z,13.50
2023-02-09T14:36:32.353Z,15.07
2023-02-09T14:39:10.714Z,14.52
2023-02-09T14:41:37.204Z,14.52
2023-02-09T14:44:20.135Z,16.00
2023-02-09T14:46:49.123Z,15.10
2023-02-09T14:49:15.972Z,15.45
2023-02-09T14:51:43.596Z,14.25
2023-02-09T14:54:18.319Z,14.48
2023-02-09T14:56:45.216Z,15.27
2023-02-09T14:59:17.043Z,18.20
2023-02-09T15:01:44.832Z,16.52
2023-02-09T15:04:11.303Z,13.63
2023-02-09T15:06:38.948Z,18.02
2023-02-09T15:09:07.059Z,14.73
2023-02-09T15:11:52.711Z,16.17
2023-02-09T15:14:24.873Z,15.60
2023-02-09T15:16:51.832Z,19.42
2023-02-09T15:19:22.002Z,17.20
2023-02-09T15:22:01.880Z,16.55
2023-02-09T15:24:32.818Z,18.15
2023-02-09T15:26:59.238Z,20.23
2023-02-09T15:29:25.630Z,16.10
2023-02-09T15:31:52.814Z,17.27
2023-02-09T15:34:19.195Z,16.15
2023-02-09T15:36:45.922Z,16.10
2023-02-09T15:39:27.927Z,15.45
2023-02-09T15:42:12.764Z,25.30
2023-02-09T15:44:57.720Z,26.73
2023-02-09T15:47:42.844Z,29.67
2023-02-09T15:50:09.493Z,34.25
2023-02-09T15:52:36.168Z,54.35
2023-02-09T15:55:02.628Z,39.55
2023-02-09T15:57:29.171Z,34.30
2023-02-09T15:59:55.552Z,35.17
2023-02-09T16:02:22.272Z,45.38
2023-02-09T16:04:49.026Z,31.80
2023-02-09T16:07:22.508Z,33.78
2023-02-09T16:12:15.334Z,45.67
2023-02-09T16:14:41.716Z,36.28
2023-02-09T16:17:08.706Z,31.40
2023-02-09T16:19:35.107Z,34.10
2023-02-09T16:22:04.574Z,26.83
2023-02-09T16:24:43.705Z,21.98
2023-02-09T16:27:16.951Z,42.35
2023-02-09T16:29:43.493Z,21.10
2023-02-09T16:32:16.273Z,26.25
2023-02-09T16:34:43.671Z,21.92
2023-02-09T16:37:15.066Z,25.30
2023-02-09T16:39:42.290Z,20.23
2023-02-09T16:42:15.823Z,19.10
2023-02-09T16:44:42.658Z,21.85
2023-02-09T16:47:25.945Z,17.40
2023-02-09T16:50:02.526Z,22.40
2023-02-09T16:52:30.161Z,21.38
2023-02-09T16:54:59.898Z,19.73
2023-02-09T16:57:28.604Z,22.48
2023-02-09T16:59:55.541Z,22.13
2023-02-09T17:02:27.850Z,18.77
2023-02-09T17:04:54.426Z,20.73
2023-02-09T17:07:24.365Z,24.45
2023-02-09T17:09:50.851Z,22.02
2023-02-09T17:12:17.236Z,21.50
2023-02-09T17:14:43.594Z,25.00
2023-02-09T17:17:17.552Z,21.63
2023-02-09T17:19:47.790Z,22.67
2023-02-09T17:22:15.156Z,22.10
2023-02-09T17:24:41.533Z,22.25
2023-02-09T17:27:09.515Z,21.33
2023-02-09T17:29:35.994Z,23.25
2023-02-09T17:32:02.881Z,22.17
2023-02-09T17:34:29.519Z,20.08
2023-02-09T17:36:56.756Z,22.25
2023-02-09T17:39:23.509Z,27.27
2023-02-09T17:41:50.229Z,24.75
2023-02-09T17:44:44.952Z,27.08
2023-02-09T17:47:16.855Z,25.25
2023-02-09T17:49:43.491Z,34.33
2023-02-09T17:52:20.431Z,30.27
2023-02-09T17:54:47.652Z,26.83
2023-02-09T17:57:15.532Z,24.38
2023-02-09T17:59:42.241Z,27.00
2023-02-09T18:02:17.712Z,26.02
2023-02-09T18:04:44.265Z,24.35
2023-02-09T18:07:11.217Z,23.80
2023-02-09T18:09:37.662Z,25.30
2023-02-09T18:12:10.553Z,25.58
2023-02-09T18:14:36.948Z,25.75
2023-02-09T18:17:03.685Z,24.70
2023-02-09T18:19:30.289Z,22.95
2023-02-09T18:21:59.262Z,24.65
2023-02-09T18:24:28.880Z,25.42
2023-02-09T18:26:55.875Z,25.50
2023-02-09T18:29:26.000Z,25.77
2023-02-09T18:31:52.437Z,28.92
2023-02-09T18:34:19.114Z,24.00
2023-02-09T18:36:45.545Z,27.95
2023-02-09T18:39:15.074Z,27.77
2023-02-09T18:41:42.059Z,27.13
2023-02-09T18:44:08.766Z,27.45
2023-02-09T18:46:35.279Z,28.58
2023-02-09T18:49:03.494Z,31.83
2023-02-09T18:51:31.203Z,31.05
2023-02-09T18:53:57.952Z,31.92
2023-02-09T18:56:26.673Z,26.33
2023-02-09T18:58:53.092Z,29.40
2023-02-09T19:01:22.159Z,32.35
2023-02-09T19:03:52.918Z,35.95
2023-02-09T19:06:21.022Z,31.83
2023-02-09T19:08:50.119Z,33.15
2023-02-09T19:11:20.473Z,29.77
2023-02-09T19:14:05.662Z,29.23
2023-02-09T19:16:32.373Z,27.58
2023-02-09T19:18:59.010Z,30.08
2023-02-09T19:21:25.406Z,33.35
2023-02-09T19:23:51.898Z,34.28
2023-02-09T19:26:18.486Z,33.28
2023-02-09T19:28:44.864Z,30.58
2023-02-09T19:31:16.203Z,30.83
2023-02-09T19:33:42.598Z,33.08
2023-02-09T19:36:09.398Z,34.42
2023-02-09T19:38:35.775Z,33.30
2023-02-09T19:41:10.390Z,37.40
2023-02-09T19:43:39.029Z,31.17
2023-02-09T19:46:05.778Z,30.67
2023-02-09T19:48:32.411Z,32.33
2023-02-09T19:50:59.442Z,33.30
2023-02-09T19:53:26.654Z,34.20
2023-02-09T19:55:53.986Z,35.30
2023-02-09T19:58:23.835Z,31.33
2023-02-09T20:00:52.041Z,33.88
2023-02-09T20:03:18.937Z,31.27
2023-02-09T20:05:46.562Z,35.97
2023-02-09T20:08:16.190Z,33.15
2023-02-09T20:10:44.116Z,34.28
2023-02-09T20:13:12.752Z,37.45
2023-02-09T20:15:44.102Z,34.03
2023-02-09T20:18:12.122Z,35.95
2023-02-09T20:20:40.972Z,36.92
2023-02-09T20:23:08.176Z,34.33
2023-02-09T20:25:34.699Z,37.90
2023-02-09T20:28:01.155Z,38.15
2023-02-09T20:30:28.051Z,44.72
2023-02-09T20:32:54.829Z,43.97
2023-02-09T20:35:21.280Z,43.65
2023-02-09T20:37:47.642Z,46.60
2023-02-09T20:40:14.188Z,60.60
2023-02-09T20:42:59.058Z,53.47
2023-02-09T20:45:44.025Z,52.03
2023-02-09T20:48:10.549Z,61.67
2023-02-09T20:50:37.001Z,84.68
2023-02-09T20:53:03.452Z,63.78
2023-02-09T20:55:30.139Z,71.72
2023-02-09T20:57:56.971Z,56.70
2023-02-09T21:00:23.421Z,58.30
2023-02-09T21:02:50.273Z,54.78
2023-02-09T21:05:16.746Z,37.55
2023-02-09T21:07:43.387Z,38.30
2023-02-09T21:10:12.752Z,36.97
2023-02-09T21:12:39.536Z,38.53
2023-02-09T21:15:06.388Z,38.30
2023-02-09T21:17:32.994Z,36.78
2023-02-09T21:19:59.387Z,37.05
2023-02-09T21:22:25.892Z,34.95
2023-02-09T21:24:52.294Z,38.20
2023-02-09T21:27:19.144Z,38.53
2023-02-09T21:29:45.719Z,40.42
2023-02-09T21:32:12.098Z,38.60
2023-02-09T21:34:38.508Z,38.88
2023-02-09T21:37:08.249Z,39.67
2023-02-09T21:39:34.708Z,40.40
2023-02-09T21:42:19.643Z,37.33
2023-02-09T21:44:46.040Z,34.13
2023-02-09T21:47:12.486Z,39.05
2023-02-09T21:49:39.272Z,41.88
2023-02-09T21:52:05.740Z,42.83
2023-02-09T21:54:33.732Z,44.35
2023-02-09T21:57:03.788Z,39.17
2023-02-09T21:59:30.258Z,40.63
2023-02-09T22:01:56.850Z,40.30
2023-02-09T22:04:23.395Z,44.90
2023-02-09T22:06:49.878Z,43.85
2023-02-09T22:09:16.306Z,44.58
2023-02-09T22:11:42.755Z,42.28
2023-02-09T22:14:09.421Z,41.42
2023-02-09T22:16:35.933Z,54.38
2023-02-09T22:19:02.342Z,75.45
2023-02-09T22:21:28.766Z,60.88
2023-02-09T22:23:55.189Z,42.20
2023-02-09T22:26:21.586Z,42.35
2023-02-09T22:28:48.532Z,42.17
2023-02-09T22:31:17.462Z,42.67
2023-02-09T22:33:44.333Z,48.42
2023-02-09T22:36:15.229Z,44.97
2023-02-09T22:38:44.465Z,41.65
2023-02-09T22:41:22.685Z,46.83
2023-02-09T22:43:57.715Z,41.08
2023-02-09T22:46:26.430Z,46.65
2023-02-09T22:48:58.652Z,41.15
2023-02-09T22:51:28.251Z,40.65
2023-02-09T22:53:55.814Z,43.63
2023-02-09T22:56:23.229Z,51.33
2023-02-09T22:58:49.820Z,46.83
2023-02-09T23:01:17.585Z,52.45
2023-02-09T23:03:44.228Z,48.97
2023-02-09T23:06:14.660Z,48.47
2023-02-09T23:08:41.072Z,50.65
2023-02-09T23:11:10.422Z,46.22
2023-02-09T23:13:38.066Z,44.70
2023-02-09T23:16:17.672Z,45.97
2023-02-09T23:18:53.314Z,43.67
2023-02-09T23:21:21.598Z,48.55
2023-02-09T23:23:48.562Z,47.13
2023-02-09T23:26:16.540Z,48.22
2023-02-09T23:28:43.076Z,46.10
2023-02-09T23:31:16.428Z,50.15
2023-02-09T23:36:13.427Z,48.25
2023-02-09T23:38:40.275Z,49.90
2023-02-09T23:41:09.230Z,48.17
2023-02-09T23:43:36.608Z,49.58
2023-02-09T23:46:08.898Z,46.80
2023-02-09T23:48:35.508Z,46.85
2023-02-09T23:51:12.304Z,49.13
2023-02-09T23:53:39.145Z,45.95
2023-02-09T23:56:06.175Z,53.08
2023-02-09T23:58:36.218Z,49.90
